sensor_id;sensor_type;location;lat;lon;timestamp;temperature;humidity
10070;DHT22;5074;53.720;10.014;2022-11-23T00:01:09;1.50;99.90
10070;DHT22;5074;53.720;10.014;2022-11-23T00:03:39;1.50;99.90
10070;DHT22;5074;53.720;10.014;2022-11-23T00:06:07;1.50;99.90
10070;DHT22;5074;53.720;10.014;2022-11-23T00:08:35;1.60;99.90
10070;DHT22;5074;53.720;10.014;2022-11-23T00:11:04;1.60;99.90
10070;DHT22;5074;53.720;10.014;2022-11-23T00:13:33;1.60;99.90
10070;DHT22;5074;53.720;10.014;2022-11-23T00:16:03;1.60;99.90
10070;DHT22;5074;53.720;10.014;2022-11-23T00:18:31;1.60;99.90
10070;DHT22;5074;53.720;10.014;2022-11-23T00:21:04;1.60;99.90
10070;DHT22;5074;53.720;10.014;2022-11-23T00:23:32;1.70;99.90
10070;DHT22;5074;53.720;10.014;2022-11-23T00:26:01;1.70;99.90
10070;DHT22;5074;53.720;10.014;2022-11-23T00:28:30;1.70;99.90
10070;DHT22;5074;53.720;10.014;2022-11-23T00:30:58;1.70;99.90
10070;DHT22;5074;53.720;10.014;2022-11-23T00:33:26;1.70;99.90
10070;DHT22;5074;53.720;10.014;2022-11-23T00:35:57;1.70;99.90
10070;DHT22;5074;53.720;10.014;2022-11-23T00:38:27;1.70;99.90
10070;DHT22;5074;53.720;10.014;2022-11-23T00:40:58;1.70;99.90
10070;DHT22;5074;53.720;10.014;2022-11-23T00:43:27;1.70;99.90
10070;DHT22;5074;53.720;10.014;2022-11-23T00:46:04;1.80;99.90
10070;DHT22;5074;53.720;10.014;2022-11-23T00:48:33;1.80;99.90
10070;DHT22;5074;53.720;10.014;2022-11-23T00:51:02;1.80;99.90
10070;DHT22;5074;53.720;10.014;2022-11-23T00:53:31;1.80;99.90
10070;DHT22;5074;53.720;10.014;2022-11-23T00:55:59;1.80;99.90
10070;DHT22;5074;53.720;10.014;2022-11-23T00:58:27;1.80;99.90
10070;DHT22;5074;53.720;10.014;2022-11-23T01:01:00;1.80;99.90
10070;DHT22;5074;53.720;10.014;2022-11-23T01:03:30;1.80;99.90
10070;DHT22;5074;53.720;10.014;2022-11-23T01:06:02;1.80;99.90
10070;DHT22;5074;53.720;10.014;2022-11-23T01:08:31;1.90;99.90
10070;DHT22;5074;53.720;10.014;2022-11-23T01:11:00;1.90;99.90
10070;DHT22;5074;53.720;10.014;2022-11-23T01:13:29;1.90;99.90
10070;DHT22;5074;53.720;10.014;2022-11-23T01:15:57;1.90;99.90
10070;DHT22;5074;53.720;10.014;2022-11-23T01:18:25;1.90;99.90
10070;DHT22;5074;53.720;10.014;2022-11-23T01:20:55;2.00;99.90
10070;DHT22;5074;53.720;10.014;2022-11-23T01:23:23;2.00;99.90
10070;DHT22;5074;53.720;10.014;2022-11-23T01:25:51;2.00;99.90
10070;DHT22;5074;53.720;10.014;2022-11-23T01:28:22;2.00;99.90
10070;DHT22;5074;53.720;10.014;2022-11-23T01:30:51;2.00;99.90
10070;DHT22;5074;53.720;10.014;2022-11-23T01:33:19;2.00;99.90
10070;DHT22;5074;53.720;10.014;2022-11-23T01:35:47;2.10;99.90
10070;DHT22;5074;53.720;10.014;2022-11-23T01:38:16;2.10;99.90
10070;DHT22;5074;53.720;10.014;2022-11-23T01:40:44;2.10;99.90
10070;DHT22;5074;53.720;10.014;2022-11-23T01:43:13;2.20;99.90
10070;DHT22;5074;53.720;10.014;2022-11-23T01:45:42;2.20;99.90
10070;DHT22;5074;53.720;10.014;2022-11-23T01:48:13;2.10;99.90
10070;DHT22;5074;53.720;10.014;2022-11-23T01:50:45;2.20;99.90
10070;DHT22;5074;53.720;10.014;2022-11-23T01:53:17;2.20;99.90
10070;DHT22;5074;53.720;10.014;2022-11-23T01:55:46;2.20;99.90
10070;DHT22;5074;53.720;10.014;2022-11-23T01:58:16;2.20;99.90
10070;DHT22;5074;53.720;10.014;2022-11-23T02:00:47;2.20;99.90
10070;DHT22;5074;53.720;10.014;2022-11-23T02:03:16;2.20;99.90
10070;DHT22;5074;53.720;10.014;2022-11-23T02:05:45;2.30;99.90
10070;DHT22;5074;53.720;10.014;2022-11-23T02:08:16;2.30;99.90
10070;DHT22;5074;53.720;10.014;2022-11-23T02:10:46;2.30;99.90
10070;DHT22;5074;53.720;10.014;2022-11-23T02:13:15;2.30;99.90
10070;DHT22;5074;53.720;10.014;2022-11-23T02:15:43;2.30;99.90
10070;DHT22;5074;53.720;10.014;2022-11-23T02:18:12;2.30;99.90
10070;DHT22;5074;53.720;10.014;2022-11-23T02:20:43;2.30;99.90
10070;DHT22;5074;53.720;10.014;2022-11-23T02:23:15;2.30;99.90
10070;DHT22;5074;53.720;10.014;2022-11-23T02:26:04;2.30;99.90
10070;DHT22;5074;53.720;10.014;2022-11-23T02:28:37;2.30;99.90
10070;DHT22;5074;53.720;10.014;2022-11-23T02:31:08;2.30;99.90
10070;DHT22;5074;53.720;10.014;2022-11-23T02:33:36;2.30;99.90
10070;DHT22;5074;53.720;10.014;2022-11-23T02:36:20;2.40;99.90
10070;DHT22;5074;53.720;10.014;2022-11-23T02:38:59;2.40;99.90
10070;DHT22;5074;53.720;10.014;2022-11-23T02:41:34;2.40;99.90
10070;DHT22;5074;53.720;10.014;2022-11-23T02:44:04;2.40;99.90
10070;DHT22;5074;53.720;10.014;2022-11-23T02:46:35;2.40;99.90
10070;DHT22;5074;53.720;10.014;2022-11-23T02:49:03;2.40;99.90
10070;DHT22;5074;53.720;10.014;2022-11-23T02:51:31;2.50;99.90
10070;DHT22;5074;53.720;10.014;2022-11-23T02:53:59;2.50;99.90
10070;DHT22;5074;53.720;10.014;2022-11-23T02:56:27;2.50;99.90
10070;DHT22;5074;53.720;10.014;2022-11-23T02:58:57;2.50;99.90
10070;DHT22;5074;53.720;10.014;2022-11-23T03:01:25;2.50;99.90
10070;DHT22;5074;53.720;10.014;2022-11-23T03:03:54;2.50;99.90
10070;DHT22;5074;53.720;10.014;2022-11-23T03:06:22;2.50;99.90
10070;DHT22;5074;53.720;10.014;2022-11-23T03:08:50;2.60;99.90
10070;DHT22;5074;53.720;10.014;2022-11-23T03:11:18;2.50;99.90
10070;DHT22;5074;53.720;10.014;2022-11-23T03:13:46;2.60;99.90
10070;DHT22;5074;53.720;10.014;2022-11-23T03:16:15;2.60;99.90
10070;DHT22;5074;53.720;10.014;2022-11-23T03:18:43;2.60;99.90
10070;DHT22;5074;53.720;10.014;2022-11-23T03:21:11;2.60;99.90
10070;DHT22;5074;53.720;10.014;2022-11-23T03:23:39;2.60;99.90
10070;DHT22;5074;53.720;10.014;2022-11-23T03:26:07;2.60;99.90
10070;DHT22;5074;53.720;10.014;2022-11-23T03:28:39;2.60;99.90
10070;DHT22;5074;53.720;10.014;2022-11-23T03:31:07;2.60;99.90
10070;DHT22;5074;53.720;10.014;2022-11-23T03:33:36;2.70;99.90
10070;DHT22;5074;53.720;10.014;2022-11-23T03:36:05;2.70;99.90
10070;DHT22;5074;53.720;10.014;2022-11-23T03:38:33;2.70;99.90
10070;DHT22;5074;53.720;10.014;2022-11-23T03:41:01;2.70;99.90
10070;DHT22;5074;53.720;10.014;2022-11-23T03:43:29;2.70;99.90
10070;DHT22;5074;53.720;10.014;2022-11-23T03:45:57;2.70;99.90
10070;DHT22;5074;53.720;10.014;2022-11-23T03:48:25;2.80;99.90
10070;DHT22;5074;53.720;10.014;2022-11-23T03:50:55;2.70;99.90
10070;DHT22;5074;53.720;10.014;2022-11-23T03:53:23;2.70;99.90
10070;DHT22;5074;53.720;10.014;2022-11-23T03:55:51;2.70;99.90
10070;DHT22;5074;53.720;10.014;2022-11-23T03:58:20;2.80;99.90
10070;DHT22;5074;53.720;10.014;2022-11-23T04:00:48;2.80;99.90
10070;DHT22;5074;53.720;10.014;2022-11-23T04:03:17;2.80;99.90
10070;DHT22;5074;53.720;10.014;2022-11-23T04:05:45;2.80;99.90
10070;DHT22;5074;53.720;10.014;2022-11-23T04:08:14;2.80;99.90
10070;DHT22;5074;53.720;10.014;2022-11-23T04:10:42;2.80;99.90
10070;DHT22;5074;53.720;10.014;2022-11-23T04:13:10;2.80;99.90
10070;DHT22;5074;53.720;10.014;2022-11-23T04:15:38;2.90;99.90
10070;DHT22;5074;53.720;10.014;2022-11-23T04:18:06;2.80;99.90
10070;DHT22;5074;53.720;10.014;2022-11-23T04:20:34;2.90;99.90
10070;DHT22;5074;53.720;10.014;2022-11-23T04:23:02;2.90;99.90
10070;DHT22;5074;53.720;10.014;2022-11-23T04:25:37;2.90;99.90
10070;DHT22;5074;53.720;10.014;2022-11-23T04:28:05;2.90;99.90
10070;DHT22;5074;53.720;10.014;2022-11-23T04:30:33;2.90;99.90
10070;DHT22;5074;53.720;10.014;2022-11-23T04:33:01;2.90;99.90
10070;DHT22;5074;53.720;10.014;2022-11-23T04:35:29;2.90;99.90
10070;DHT22;5074;53.720;10.014;2022-11-23T04:37:57;2.90;99.90
10070;DHT22;5074;53.720;10.014;2022-11-23T04:40:25;2.90;99.90
10070;DHT22;5074;53.720;10.014;2022-11-23T04:42:55;2.90;99.90
10070;DHT22;5074;53.720;10.014;2022-11-23T04:45:27;3.00;99.90
10070;DHT22;5074;53.720;10.014;2022-11-23T04:47:55;3.00;99.90
10070;DHT22;5074;53.720;10.014;2022-11-23T04:50:23;3.00;99.90
10070;DHT22;5074;53.720;10.014;2022-11-23T04:52:53;3.00;99.90
10070;DHT22;5074;53.720;10.014;2022-11-23T04:55:37;3.00;99.90
10070;DHT22;5074;53.720;10.014;2022-11-23T04:58:06;3.00;99.90
10070;DHT22;5074;53.720;10.014;2022-11-23T05:00:34;3.00;99.90
10070;DHT22;5074;53.720;10.014;2022-11-23T05:03:02;3.00;99.90
10070;DHT22;5074;53.720;10.014;2022-11-23T05:05:30;3.00;99.90
10070;DHT22;5074;53.720;10.014;2022-11-23T05:07:58;3.00;99.90
10070;DHT22;5074;53.720;10.014;2022-11-23T05:10:26;3.00;99.90
10070;DHT22;5074;53.720;10.014;2022-11-23T05:12:54;3.00;99.90
10070;DHT22;5074;53.720;10.014;2022-11-23T05:15:23;3.00;99.90
10070;DHT22;5074;53.720;10.014;2022-11-23T05:17:52;3.10;99.90
10070;DHT22;5074;53.720;10.014;2022-11-23T05:20:24;3.10;99.90
10070;DHT22;5074;53.720;10.014;2022-11-23T05:22:52;3.10;99.90
10070;DHT22;5074;53.720;10.014;2022-11-23T05:25:20;3.10;99.90
10070;DHT22;5074;53.720;10.014;2022-11-23T05:27:48;3.10;99.90
10070;DHT22;5074;53.720;10.014;2022-11-23T05:30:16;3.10;99.90
10070;DHT22;5074;53.720;10.014;2022-11-23T05:32:46;3.10;99.90
10070;DHT22;5074;53.720;10.014;2022-11-23T05:35:14;3.10;99.90
10070;DHT22;5074;53.720;10.014;2022-11-23T05:37:42;3.20;99.90
10070;DHT22;5074;53.720;10.014;2022-11-23T05:40:10;3.20;99.90
10070;DHT22;5074;53.720;10.014;2022-11-23T05:42:38;3.20;99.90
10070;DHT22;5074;53.720;10.014;2022-11-23T05:45:07;3.20;99.90
10070;DHT22;5074;53.720;10.014;2022-11-23T05:47:37;3.30;99.90
10070;DHT22;5074;53.720;10.014;2022-11-23T05:50:07;3.40;99.90
10070;DHT22;5074;53.720;10.014;2022-11-23T05:52:36;3.40;99.90
10070;DHT22;5074;53.720;10.014;2022-11-23T05:55:04;3.40;99.90
10070;DHT22;5074;53.720;10.014;2022-11-23T05:57:32;3.40;99.90
10070;DHT22;5074;53.720;10.014;2022-11-23T06:00:00;3.40;99.90
10070;DHT22;5074;53.720;10.014;2022-11-23T06:02:28;3.40;99.90
10070;DHT22;5074;53.720;10.014;2022-11-23T06:04:56;3.40;99.90
10070;DHT22;5074;53.720;10.014;2022-11-23T06:07:25;3.40;99.90
10070;DHT22;5074;53.720;10.014;2022-11-23T06:09:53;3.40;99.90
10070;DHT22;5074;53.720;10.014;2022-11-23T06:12:21;3.40;99.90
10070;DHT22;5074;53.720;10.014;2022-11-23T06:14:49;3.50;99.90
10070;DHT22;5074;53.720;10.014;2022-11-23T06:17:17;3.40;99.90
10070;DHT22;5074;53.720;10.014;2022-11-23T06:19:45;3.40;99.90
10070;DHT22;5074;53.720;10.014;2022-11-23T06:22:13;3.30;99.90
10070;DHT22;5074;53.720;10.014;2022-11-23T06:24:43;3.30;99.90
10070;DHT22;5074;53.720;10.014;2022-11-23T06:27:11;3.30;99.90
10070;DHT22;5074;53.720;10.014;2022-11-23T06:29:44;3.30;99.90
10070;DHT22;5074;53.720;10.014;2022-11-23T06:32:12;3.30;99.90
10070;DHT22;5074;53.720;10.014;2022-11-23T06:34:41;3.30;99.90
10070;DHT22;5074;53.720;10.014;2022-11-23T06:37:09;3.30;99.90
10070;DHT22;5074;53.720;10.014;2022-11-23T06:39:37;3.30;99.90
10070;DHT22;5074;53.720;10.014;2022-11-23T06:42:07;3.30;99.90
10070;DHT22;5074;53.720;10.014;2022-11-23T06:44:55;3.30;99.90
10070;DHT22;5074;53.720;10.014;2022-11-23T06:47:23;3.20;99.90
10070;DHT22;5074;53.720;10.014;2022-11-23T06:49:52;3.20;99.90
10070;DHT22;5074;53.720;10.014;2022-11-23T06:52:20;3.20;99.90
10070;DHT22;5074;53.720;10.014;2022-11-23T06:54:48;3.20;99.90
10070;DHT22;5074;53.720;10.014;2022-11-23T06:57:17;3.20;99.90
10070;DHT22;5074;53.720;10.014;2022-11-23T06:59:45;3.20;99.90
10070;DHT22;5074;53.720;10.014;2022-11-23T07:02:13;3.20;99.90
10070;DHT22;5074;53.720;10.014;2022-11-23T07:04:42;3.20;99.90
10070;DHT22;5074;53.720;10.014;2022-11-23T07:07:10;3.20;99.90
10070;DHT22;5074;53.720;10.014;2022-11-23T07:09:38;3.20;99.90
10070;DHT22;5074;53.720;10.014;2022-11-23T07:12:06;3.20;99.90
10070;DHT22;5074;53.720;10.014;2022-11-23T07:14:36;3.20;99.90
10070;DHT22;5074;53.720;10.014;2022-11-23T07:17:04;3.20;99.90
10070;DHT22;5074;53.720;10.014;2022-11-23T07:19:31;3.20;99.90
10070;DHT22;5074;53.720;10.014;2022-11-23T07:22:00;3.30;99.90
10070;DHT22;5074;53.720;10.014;2022-11-23T07:24:28;3.30;99.90
10070;DHT22;5074;53.720;10.014;2022-11-23T07:27:05;3.30;99.90
10070;DHT22;5074;53.720;10.014;2022-11-23T07:29:33;3.40;99.90
10070;DHT22;5074;53.720;10.014;2022-11-23T07:32:02;3.40;99.90
10070;DHT22;5074;53.720;10.014;2022-11-23T07:34:32;3.40;99.90
10070;DHT22;5074;53.720;10.014;2022-11-23T07:37:00;3.40;99.90
10070;DHT22;5074;53.720;10.014;2022-11-23T07:39:29;3.40;99.90
10070;DHT22;5074;53.720;10.014;2022-11-23T07:42:18;3.50;99.90
10070;DHT22;5074;53.720;10.014;2022-11-23T07:45:06;3.50;99.90
10070;DHT22;5074;53.720;10.014;2022-11-23T07:47:36;3.60;99.90
10070;DHT22;5074;53.720;10.014;2022-11-23T07:50:05;3.60;99.90
10070;DHT22;5074;53.720;10.014;2022-11-23T07:52:35;3.60;99.90
10070;DHT22;5074;53.720;10.014;2022-11-23T07:55:04;3.60;99.90
10070;DHT22;5074;53.720;10.014;2022-11-23T07:57:33;3.60;99.90
10070;DHT22;5074;53.720;10.014;2022-11-23T08:00:01;3.70;99.90
10070;DHT22;5074;53.720;10.014;2022-11-23T08:02:29;3.70;99.90
10070;DHT22;5074;53.720;10.014;2022-11-23T08:04:59;3.70;99.90
10070;DHT22;5074;53.720;10.014;2022-11-23T08:07:27;3.80;99.90
10070;DHT22;5074;53.720;10.014;2022-11-23T08:09:55;3.80;99.90
10070;DHT22;5074;53.720;10.014;2022-11-23T08:12:23;3.80;99.90
10070;DHT22;5074;53.720;10.014;2022-11-23T08:14:51;3.90;99.90
10070;DHT22;5074;53.720;10.014;2022-11-23T08:17:19;4.00;99.90
10070;DHT22;5074;53.720;10.014;2022-11-23T08:19:47;4.10;99.90
10070;DHT22;5074;53.720;10.014;2022-11-23T08:22:16;4.00;99.90
10070;DHT22;5074;53.720;10.014;2022-11-23T08:24:44;4.10;99.90
10070;DHT22;5074;53.720;10.014;2022-11-23T08:27:13;4.20;99.90
10070;DHT22;5074;53.720;10.014;2022-11-23T08:29:43;4.20;99.90
10070;DHT22;5074;53.720;10.014;2022-11-23T08:32:11;4.30;99.90
10070;DHT22;5074;53.720;10.014;2022-11-23T08:34:40;4.30;99.90
10070;DHT22;5074;53.720;10.014;2022-11-23T08:37:09;4.30;99.90
10070;DHT22;5074;53.720;10.014;2022-11-23T08:39:38;4.40;99.90
10070;DHT22;5074;53.720;10.014;2022-11-23T08:42:06;4.40;99.90
10070;DHT22;5074;53.720;10.014;2022-11-23T08:44:34;4.40;99.90
10070;DHT22;5074;53.720;10.014;2022-11-23T08:47:02;4.50;99.90
10070;DHT22;5074;53.720;10.014;2022-11-23T08:49:30;4.50;99.90
10070;DHT22;5074;53.720;10.014;2022-11-23T08:51:58;4.50;99.90
10070;DHT22;5074;53.720;10.014;2022-11-23T08:54:26;4.60;99.90
10070;DHT22;5074;53.720;10.014;2022-11-23T08:56:55;4.50;99.90
10070;DHT22;5074;53.720;10.014;2022-11-23T08:59:23;4.60;99.90
10070;DHT22;5074;53.720;10.014;2022-11-23T09:01:51;4.60;99.90
10070;DHT22;5074;53.720;10.014;2022-11-23T09:04:19;4.60;99.90
10070;DHT22;5074;53.720;10.014;2022-11-23T09:06:47;4.70;99.90
10070;DHT22;5074;53.720;10.014;2022-11-23T09:09:15;4.70;99.90
10070;DHT22;5074;53.720;10.014;2022-11-23T09:11:44;4.80;99.90
10070;DHT22;5074;53.720;10.014;2022-11-23T09:14:13;4.80;99.90
10070;DHT22;5074;53.720;10.014;2022-11-23T09:16:42;4.90;99.90
10070;DHT22;5074;53.720;10.014;2022-11-23T09:19:11;4.90;99.90
10070;DHT22;5074;53.720;10.014;2022-11-23T09:21:39;5.00;99.90
10070;DHT22;5074;53.720;10.014;2022-11-23T09:24:09;5.10;99.90
10070;DHT22;5074;53.720;10.014;2022-11-23T09:26:37;5.10;99.90
10070;DHT22;5074;53.720;10.014;2022-11-23T09:29:06;5.10;99.90
10070;DHT22;5074;53.720;10.014;2022-11-23T09:31:36;5.20;99.90
10070;DHT22;5074;53.720;10.014;2022-11-23T09:34:04;5.20;99.90
10070;DHT22;5074;53.720;10.014;2022-11-23T09:36:32;5.20;99.90
10070;DHT22;5074;53.720;10.014;2022-11-23T09:39:00;5.20;99.90
10070;DHT22;5074;53.720;10.014;2022-11-23T09:41:36;5.30;99.90
10070;DHT22;5074;53.720;10.014;2022-11-23T09:44:19;5.30;99.90
10070;DHT22;5074;53.720;10.014;2022-11-23T09:46:58;5.30;99.90
10070;DHT22;5074;53.720;10.014;2022-11-23T09:49:37;5.40;99.90
10070;DHT22;5074;53.720;10.014;2022-11-23T09:52:13;5.40;99.90
10070;DHT22;5074;53.720;10.014;2022-11-23T09:54:44;5.50;99.90
10070;DHT22;5074;53.720;10.014;2022-11-23T09:57:16;5.60;99.90
10070;DHT22;5074;53.720;10.014;2022-11-23T09:59:48;5.60;99.90
10070;DHT22;5074;53.720;10.014;2022-11-23T10:02:23;5.70;99.90
10070;DHT22;5074;53.720;10.014;2022-11-23T10:04:54;5.70;99.90
10070;DHT22;5074;53.720;10.014;2022-11-23T10:07:27;5.80;99.90
10070;DHT22;5074;53.720;10.014;2022-11-23T10:10:08;5.80;99.90
10070;DHT22;5074;53.720;10.014;2022-11-23T10:12:48;5.90;99.90
10070;DHT22;5074;53.720;10.014;2022-11-23T10:15:25;5.90;99.90
10070;DHT22;5074;53.720;10.014;2022-11-23T10:18:06;6.00;99.90
10070;DHT22;5074;53.720;10.014;2022-11-23T10:23:45;6.10;99.90
10070;DHT22;5074;53.720;10.014;2022-11-23T10:26:20;6.20;99.90
10070;DHT22;5074;53.720;10.014;2022-11-23T10:28:54;6.20;99.90
10070;DHT22;5074;53.720;10.014;2022-11-23T10:31:26;6.10;99.90
10070;DHT22;5074;53.720;10.014;2022-11-23T10:34:00;6.20;99.90
10070;DHT22;5074;53.720;10.014;2022-11-23T10:36:35;6.10;99.90
10070;DHT22;5074;53.720;10.014;2022-11-23T10:39:08;6.10;99.90
10070;DHT22;5074;53.720;10.014;2022-11-23T10:41:43;6.10;99.90
10070;DHT22;5074;53.720;10.014;2022-11-23T10:44:17;6.10;99.90
10070;DHT22;5074;53.720;10.014;2022-11-23T10:46:52;6.20;99.90
10070;DHT22;5074;53.720;10.014;2022-11-23T10:49:22;6.20;99.90
10070;DHT22;5074;53.720;10.014;2022-11-23T10:51:53;6.30;99.90
10070;DHT22;5074;53.720;10.014;2022-11-23T10:54:24;6.30;99.90
10070;DHT22;5074;53.720;10.014;2022-11-23T10:56:57;6.40;99.90
10070;DHT22;5074;53.720;10.014;2022-11-23T10:59:27;6.50;99.90
10070;DHT22;5074;53.720;10.014;2022-11-23T11:02:08;6.60;99.90
10070;DHT22;5074;53.720;10.014;2022-11-23T11:04:49;6.60;99.90
10070;DHT22;5074;53.720;10.014;2022-11-23T11:07:25;6.70;99.90
10070;DHT22;5074;53.720;10.014;2022-11-23T11:09:55;6.70;99.90
10070;DHT22;5074;53.720;10.014;2022-11-23T11:12:25;6.70;99.90
10070;DHT22;5074;53.720;10.014;2022-11-23T11:14:59;6.70;99.90
10070;DHT22;5074;53.720;10.014;2022-11-23T11:17:37;6.70;99.90
10070;DHT22;5074;53.720;10.014;2022-11-23T11:20:28;6.70;99.90
10070;DHT22;5074;53.720;10.014;2022-11-23T11:22:58;6.70;99.90
10070;DHT22;5074;53.720;10.014;2022-11-23T11:25:29;6.80;99.90
10070;DHT22;5074;53.720;10.014;2022-11-23T11:27:59;6.80;99.90
10070;DHT22;5074;53.720;10.014;2022-11-23T11:30:31;6.80;99.90
10070;DHT22;5074;53.720;10.014;2022-11-23T11:33:12;6.80;99.90
10070;DHT22;5074;53.720;10.014;2022-11-23T11:35:47;6.80;99.90
10070;DHT22;5074;53.720;10.014;2022-11-23T11:38:19;6.90;99.90
10070;DHT22;5074;53.720;10.014;2022-11-23T11:40:55;6.90;99.90
10070;DHT22;5074;53.720;10.014;2022-11-23T11:43:27;6.90;99.90
10070;DHT22;5074;53.720;10.014;2022-11-23T11:46:08;6.90;99.90
10070;DHT22;5074;53.720;10.014;2022-11-23T11:48:56;6.90;99.90
10070;DHT22;5074;53.720;10.014;2022-11-23T11:51:31;6.90;99.90
10070;DHT22;5074;53.720;10.014;2022-11-23T11:54:05;6.90;99.90
10070;DHT22;5074;53.720;10.014;2022-11-23T11:56:40;6.90;99.90
10070;DHT22;5074;53.720;10.014;2022-11-23T11:59:13;7.00;99.90
10070;DHT22;5074;53.720;10.014;2022-11-23T12:01:47;7.00;99.90
10070;DHT22;5074;53.720;10.014;2022-11-23T12:04:23;7.10;99.90
10070;DHT22;5074;53.720;10.014;2022-11-23T12:07:01;7.20;99.90
10070;DHT22;5074;53.720;10.014;2022-11-23T12:09:36;7.20;99.90
10070;DHT22;5074;53.720;10.014;2022-11-23T12:12:10;7.30;99.90
10070;DHT22;5074;53.720;10.014;2022-11-23T12:14:42;7.30;99.90
10070;DHT22;5074;53.720;10.014;2022-11-23T12:17:18;7.30;99.90
10070;DHT22;5074;53.720;10.014;2022-11-23T12:20:01;7.30;99.90
10070;DHT22;5074;53.720;10.014;2022-11-23T12:22:40;7.40;99.90
10070;DHT22;5074;53.720;10.014;2022-11-23T12:25:23;7.40;99.90
10070;DHT22;5074;53.720;10.014;2022-11-23T12:28:03;7.50;99.90
10070;DHT22;5074;53.720;10.014;2022-11-23T12:30:47;7.60;99.90
10070;DHT22;5074;53.720;10.014;2022-11-23T12:36:13;7.50;99.90
10070;DHT22;5074;53.720;10.014;2022-11-23T12:39:09;7.40;99.90
10070;DHT22;5074;53.720;10.014;2022-11-23T12:41:49;7.20;99.90
10070;DHT22;5074;53.720;10.014;2022-11-23T12:44:28;7.10;99.90
10070;DHT22;5074;53.720;10.014;2022-11-23T12:47:10;7.00;99.90
10070;DHT22;5074;53.720;10.014;2022-11-23T12:49:47;7.00;99.90
10070;DHT22;5074;53.720;10.014;2022-11-23T12:52:26;7.10;99.90
10070;DHT22;5074;53.720;10.014;2022-11-23T12:55:12;7.10;99.90
10070;DHT22;5074;53.720;10.014;2022-11-23T12:57:48;7.20;99.90
10070;DHT22;5074;53.720;10.014;2022-11-23T13:00:21;7.20;99.90
10070;DHT22;5074;53.720;10.014;2022-11-23T13:06:10;7.40;99.90
10070;DHT22;5074;53.720;10.014;2022-11-23T13:11:53;7.50;99.90
10070;DHT22;5074;53.720;10.014;2022-11-23T13:14:34;7.40;99.90
10070;DHT22;5074;53.720;10.014;2022-11-23T13:17:11;7.30;99.90
10070;DHT22;5074;53.720;10.014;2022-11-23T13:22:44;7.30;99.90
10070;DHT22;5074;53.720;10.014;2022-11-23T13:25:18;7.20;99.90
10070;DHT22;5074;53.720;10.014;2022-11-23T13:27:58;7.20;99.90
10070;DHT22;5074;53.720;10.014;2022-11-23T13:30:33;7.20;99.90
10070;DHT22;5074;53.720;10.014;2022-11-23T13:33:26;7.20;99.90
10070;DHT22;5074;53.720;10.014;2022-11-23T13:36:03;7.20;99.90
10070;DHT22;5074;53.720;10.014;2022-11-23T13:38:43;7.20;99.90
10070;DHT22;5074;53.720;10.014;2022-11-23T13:44:28;7.20;99.90
10070;DHT22;5074;53.720;10.014;2022-11-23T13:46:59;7.20;99.90
10070;DHT22;5074;53.720;10.014;2022-11-23T13:49:30;7.20;99.90
10070;DHT22;5074;53.720;10.014;2022-11-23T14:01:07;7.20;99.90
10070;DHT22;5074;53.720;10.014;2022-11-23T14:03:45;7.20;99.90
10070;DHT22;5074;53.720;10.014;2022-11-23T14:06:19;7.20;99.90
10070;DHT22;5074;53.720;10.014;2022-11-23T14:08:52;7.20;99.90
10070;DHT22;5074;53.720;10.014;2022-11-23T14:11:27;7.20;99.90
10070;DHT22;5074;53.720;10.014;2022-11-23T14:13:58;7.20;99.90
10070;DHT22;5074;53.720;10.014;2022-11-23T14:16:52;7.20;99.90
10070;DHT22;5074;53.720;10.014;2022-11-23T14:19:44;7.20;99.90
10070;DHT22;5074;53.720;10.014;2022-11-23T14:22:37;7.30;99.90
10070;DHT22;5074;53.720;10.014;2022-11-23T14:25:17;7.30;99.90
10070;DHT22;5074;53.720;10.014;2022-11-23T14:27:56;7.30;99.90
10070;DHT22;5074;53.720;10.014;2022-11-23T14:30:33;7.30;99.90
10070;DHT22;5074;53.720;10.014;2022-11-23T14:33:17;7.20;99.90
10070;DHT22;5074;53.720;10.014;2022-11-23T14:35:57;7.10;99.90
10070;DHT22;5074;53.720;10.014;2022-11-23T14:41:48;7.00;99.90
10070;DHT22;5074;53.720;10.014;2022-11-23T14:44:22;7.00;99.90
10070;DHT22;5074;53.720;10.014;2022-11-23T14:46:58;6.90;99.90
10070;DHT22;5074;53.720;10.014;2022-11-23T14:49:29;6.90;99.90
10070;DHT22;5074;53.720;10.014;2022-11-23T14:51:57;6.80;99.90
10070;DHT22;5074;53.720;10.014;2022-11-23T14:54:27;6.80;99.90
10070;DHT22;5074;53.720;10.014;2022-11-23T14:57:02;6.70;99.90
10070;DHT22;5074;53.720;10.014;2022-11-23T14:59:33;6.80;99.90
10070;DHT22;5074;53.720;10.014;2022-11-23T15:02:05;6.70;99.90
10070;DHT22;5074;53.720;10.014;2022-11-23T15:04:56;6.60;99.90
10070;DHT22;5074;53.720;10.014;2022-11-23T15:07:33;6.60;99.90
10070;DHT22;5074;53.720;10.014;2022-11-23T15:10:16;6.50;99.90
10070;DHT22;5074;53.720;10.014;2022-11-23T15:12:51;6.40;99.90
10070;DHT22;5074;53.720;10.014;2022-11-23T15:15:20;6.30;99.90
10070;DHT22;5074;53.720;10.014;2022-11-23T15:17:50;6.20;99.90
10070;DHT22;5074;53.720;10.014;2022-11-23T15:20:20;6.10;99.90
10070;DHT22;5074;53.720;10.014;2022-11-23T15:22:49;6.10;99.90
10070;DHT22;5074;53.720;10.014;2022-11-23T15:25:18;6.00;99.90
10070;DHT22;5074;53.720;10.014;2022-11-23T15:27:46;5.90;99.90
10070;DHT22;5074;53.720;10.014;2022-11-23T15:30:16;5.90;99.90
10070;DHT22;5074;53.720;10.014;2022-11-23T15:32:56;5.80;99.90
10070;DHT22;5074;53.720;10.014;2022-11-23T15:35:29;5.80;99.90
10070;DHT22;5074;53.720;10.014;2022-11-23T15:37:59;5.70;99.90
10070;DHT22;5074;53.720;10.014;2022-11-23T15:40:29;5.70;99.90
10070;DHT22;5074;53.720;10.014;2022-11-23T15:43:01;5.60;99.90
10070;DHT22;5074;53.720;10.014;2022-11-23T15:45:33;5.50;99.90
10070;DHT22;5074;53.720;10.014;2022-11-23T15:48:03;5.40;99.90
10070;DHT22;5074;53.720;10.014;2022-11-23T15:50:35;5.40;99.90
10070;DHT22;5074;53.720;10.014;2022-11-23T15:53:12;5.40;99.90
10070;DHT22;5074;53.720;10.014;2022-11-23T15:55:41;5.30;99.90
10070;DHT22;5074;53.720;10.014;2022-11-23T15:58:12;5.20;99.90
10070;DHT22;5074;53.720;10.014;2022-11-23T16:00:46;5.20;99.90
10070;DHT22;5074;53.720;10.014;2022-11-23T16:03:25;5.10;99.90
10070;DHT22;5074;53.720;10.014;2022-11-23T16:08:54;4.90;99.90
10070;DHT22;5074;53.720;10.014;2022-11-23T16:11:27;4.90;99.90
10070;DHT22;5074;53.720;10.014;2022-11-23T16:14:10;4.90;99.90
10070;DHT22;5074;53.720;10.014;2022-11-23T16:16:43;4.90;99.90
10070;DHT22;5074;53.720;10.014;2022-11-23T16:19:20;4.80;99.90
10070;DHT22;5074;53.720;10.014;2022-11-23T16:21:53;4.70;99.90
10070;DHT22;5074;53.720;10.014;2022-11-23T16:24:28;4.60;99.90
10070;DHT22;5074;53.720;10.014;2022-11-23T16:27:00;4.60;99.90
10070;DHT22;5074;53.720;10.014;2022-11-23T16:29:39;4.60;99.90
10070;DHT22;5074;53.720;10.014;2022-11-23T16:34:52;4.50;99.90
10070;DHT22;5074;53.720;10.014;2022-11-23T16:37:22;4.50;99.90
10070;DHT22;5074;53.720;10.014;2022-11-23T16:39:51;4.40;99.90
10070;DHT22;5074;53.720;10.014;2022-11-23T16:42:19;4.40;99.90
10070;DHT22;5074;53.720;10.014;2022-11-23T16:44:47;4.40;99.90
10070;DHT22;5074;53.720;10.014;2022-11-23T16:47:18;4.30;99.90
10070;DHT22;5074;53.720;10.014;2022-11-23T16:49:48;4.30;99.90